Terminal Aerodrome Forecast
Issued by NWS

Home | Current Version | Previous Version | Graphics & Text | Print | Product List | Glossary On
Versions: 1 2 3 4 5 6 7 8 9 10 11 12
000
FTUS45 KGGW 091750 RRA
TAFGDV
TAF
KGDV 091750Z 0918/1018 27014KT P6SM SKC
     FM092200 29015KT P6SM SKC WS020/31045KT
     FM101400 26007KT P6SM FEW150=

USA.gov is the U.S. government's official web portal to all federal, state and local government web resources and services.